Airfield :
LOGIN :

Register | Disclaimer

   EN    FR    IT 

 










Legend :    VFR   Marginal VFR   IFR   Intensive IFR   Very Intensive IFR
Visi :
Ceiling :
>= 8 km
>= 3000ft
5 to 8 km
1000 to 3000 ft
1500m to 5 km
500 to 1000 ft
800 to 1500m
200 to 500 ft
< 800m
< 200 ft
Symbols :   Thunderstorms  Fog  Heavy snow  Heavy precipitations  Wind > 20 kt
SIGMETs :     Misc.  Thunderstorms  Icing  Turbulence  Mountain Waves  Volcanic Ashes






- Airport Elevation : 228 ft
- IATA code : OPO


LPPR - Porto Fr. Sa Carneiro

CURRENT METAR :
  • 040330Z 11009KT CAVOK 13/08 Q1011

EXPIRED METARs :
  • 040300Z 10007KT CAVOK 10/07 Q1011
  • 040230Z 08003KT 040V110 CAVOK 09/07 Q1011
  • 040200Z VRB02KT CAVOK 11/07 Q1012
  • 040130Z 10004KT CAVOK 11/08 Q1012
  • 040100Z 00000KT CAVOK 10/07 Q1012

TAF TAF LPPR
Valid from the 04 at 00:00 until the 05 at 00:00 UTC


032300Z 0400/0424 10005KT CAVOK
BECMG 0410/0413 20010KT
BECMG 0421/0424 16015KT 6000 -RA SCT012 BKN030



MET'MAP, your aeronautical weather chart ! - Copyright ORBIFLY December 2007 - Disclaimer

ORBIFLY MET'MAP TEAM :

Programming & Development : Alexandra Zaïnal
Concept & original design : Baudouin d'Aumeries
Assistance for programming : Marc-Olivier Méhu
Technical & hardware support : Manuel Goepfert

Contact : metmap@orbifly.com




SOURCES & CREDITS :

   NOAA